createdAt,value
2023-03-08T00:02:30.912Z,97536.20
2023-03-08T00:12:36.690Z,97547.02
2023-03-08T00:22:59.707Z,97545.13
2023-03-08T00:33:06.402Z,97547.20
2023-03-08T00:43:12.325Z,97544.64
2023-03-08T00:53:18.412Z,97549.31
2023-03-08T01:03:24.803Z,97556.95
2023-03-08T01:13:29.982Z,97554.33
2023-03-08T01:23:35.896Z,97563.14
2023-03-08T01:33:42.207Z,97562.61
2023-03-08T01:43:46.990Z,97566.39
2023-03-08T01:53:54.278Z,97556.77
2023-03-08T02:04:00.225Z,97563.38
2023-03-08T02:14:06.536Z,97565.50
2023-03-08T02:24:19.557Z,97573.68
2023-03-08T02:34:25.197Z,97571.31
2023-03-08T02:44:30.779Z,97586.66
2023-03-08T02:54:36.338Z,97610.38
2023-03-08T03:04:41.962Z,97629.22
2023-03-08T03:14:47.648Z,97635.76
2023-03-08T03:24:54.330Z,97646.53
2023-03-08T03:35:00.133Z,97657.52
2023-03-08T03:45:06.999Z,97672.89
2023-03-08T03:55:13.426Z,97683.29
2023-03-08T04:05:19.362Z,97685.58
2023-03-08T04:15:25.018Z,97689.89
2023-03-08T04:25:30.697Z,97695.05
2023-03-08T04:35:36.536Z,97712.08
2023-03-08T04:45:42.210Z,97722.52
2023-03-08T04:55:48.009Z,97726.59
2023-03-08T05:05:56.368Z,97737.88
2023-03-08T05:16:02.213Z,97747.02
2023-03-08T05:26:10.052Z,97755.86
2023-03-08T05:36:16.325Z,97761.89
2023-03-08T05:46:22.718Z,97779.48
2023-03-08T05:56:28.560Z,97793.48
2023-03-08T06:06:35.002Z,97811.00
2023-03-08T06:16:39.286Z,97825.19
2023-03-08T06:26:45.016Z,97838.71
2023-03-08T06:36:52.064Z,97853.86
2023-03-08T06:46:57.948Z,97869.13
2023-03-08T06:57:05.766Z,97875.93
2023-03-08T07:07:12.428Z,97882.69
2023-03-08T07:17:18.568Z,97887.60
2023-03-08T07:27:24.221Z,97895.59
2023-03-08T07:37:29.977Z,97904.93
2023-03-08T07:47:35.729Z,97914.81
2023-03-08T07:57:41.376Z,97915.81
2023-03-08T08:07:48.552Z,97934.17
2023-03-08T08:17:54.560Z,97940.88
2023-03-08T08:28:00.170Z,97951.57
2023-03-08T08:38:05.854Z,97962.62
2023-03-08T08:48:11.630Z,97965.73
2023-03-08T08:58:17.803Z,97955.41
2023-03-08T09:08:23.475Z,97953.15
2023-03-08T09:18:29.150Z,97950.80
2023-03-08T09:28:35.266Z,97955.90
2023-03-08T09:38:41.163Z,97959.13
2023-03-08T09:48:51.084Z,97959.94
2023-03-08T09:59:00.777Z,97962.96
2023-03-08T10:09:16.390Z,97973.88
2023-03-08T10:19:29.610Z,97960.14
2023-03-08T10:29:35.305Z,97961.20
2023-03-08T10:39:53.160Z,97956.13
2023-03-08T10:50:18.125Z,97949.46
2023-03-08T11:00:32.073Z,97943.73
2023-03-08T11:10:40.440Z,97931.24
2023-03-08T11:20:50.371Z,97916.35
2023-03-08T11:31:09.437Z,97907.41
2023-03-08T11:41:24.827Z,97886.83
2023-03-08T11:51:38.811Z,97894.36
2023-03-08T12:01:49.661Z,97896.01
2023-03-08T12:12:01.363Z,97892.75
2023-03-08T12:22:18.345Z,97885.16
2023-03-08T12:32:25.642Z,97883.95
2023-03-08T12:42:37.273Z,97880.29
2023-03-08T12:52:43.646Z,97873.69
2023-03-08T13:02:59.528Z,97862.57
2023-03-08T13:13:37.591Z,97841.95
2023-03-08T13:23:50.710Z,97830.42
2023-03-08T13:33:57.650Z,97815.16
2023-03-08T13:44:08.265Z,97807.23
2023-03-08T13:54:23.454Z,97802.27
2023-03-08T14:04:31.620Z,97793.71
2023-03-08T14:14:40.623Z,97780.45
2023-03-08T14:24:54.340Z,97777.13
2023-03-08T14:35:16.295Z,97772.48
2023-03-08T14:45:25.004Z,97758.48
2023-03-08T14:55:33.503Z,97751.65
2023-03-08T15:05:39.924Z,97735.34
2023-03-08T15:15:46.233Z,97729.65
2023-03-08T15:25:52.679Z,97720.67
2023-03-08T15:35:59.208Z,97720.61
2023-03-08T15:46:04.891Z,97708.60
2023-03-08T15:56:10.640Z,97701.04
2023-03-08T16:06:18.224Z,97690.59
2023-03-08T16:16:32.292Z,97686.05
2023-03-08T16:26:48.453Z,97688.52
2023-03-08T16:36:56.116Z,97676.66
2023-03-08T16:47:01.914Z,97677.52
2023-03-08T16:57:18.559Z,97683.21
2023-03-08T17:07:24.577Z,97685.23
2023-03-08T17:17:30.275Z,97683.52
2023-03-08T17:27:36.014Z,97668.23
2023-03-08T17:37:42.553Z,97661.46
2023-03-08T17:47:46.867Z,97652.77
2023-03-08T17:57:52.517Z,97654.54
2023-03-08T18:07:58.888Z,97651.77
2023-03-08T18:18:04.676Z,97635.00
2023-03-08T18:28:10.501Z,97614.63
2023-03-08T18:38:16.286Z,97594.88
2023-03-08T18:48:22.645Z,97573.58
2023-03-08T18:58:27.158Z,97560.82
2023-03-08T19:08:33.321Z,97535.88
2023-03-08T19:18:38.938Z,97514.83
2023-03-08T19:28:44.766Z,97501.48
2023-03-08T19:38:50.765Z,97486.45
2023-03-08T19:48:57.654Z,97480.41
2023-03-08T19:59:04.142Z,97475.04
2023-03-08T20:09:09.492Z,97468.67
2023-03-08T20:19:15.274Z,97458.71
2023-03-08T20:29:21.062Z,97444.64
2023-03-08T20:39:26.743Z,97433.83
2023-03-08T20:49:32.462Z,97423.34
2023-03-08T20:59:38.432Z,97413.10
2023-03-08T21:09:46.016Z,97399.14
2023-03-08T21:19:51.960Z,97391.26
2023-03-08T21:29:58.223Z,97393.70
2023-03-08T21:40:07.296Z,97388.06
2023-03-08T21:50:14.542Z,97383.67
2023-03-08T22:00:20.911Z,97368.45
2023-03-08T22:10:26.625Z,97364.56
2023-03-08T22:20:32.303Z,97363.34
2023-03-08T22:30:37.940Z,97350.79
2023-03-08T22:40:44.065Z,97345.48
2023-03-08T22:50:56.305Z,97333.61
2023-03-08T23:01:15.090Z,97330.20
2023-03-08T23:11:20.841Z,97331.21
2023-03-08T23:21:29.434Z,97338.51
2023-03-08T23:31:37.380Z,97341.64
2023-03-08T23:41:43.313Z,97346.13
2023-03-08T23:51:54.061Z,97339.11
